sensor_id;sensor_type;location;lat;lon;timestamp;temperature;humidity
17148;DHT22;8689;47.364;8.796;2024-02-23T09:55:28;5.60;97.60
17148;DHT22;8689;47.364;8.796;2024-02-23T09:58:21;5.60;96.40
17148;DHT22;8689;47.364;8.796;2024-02-23T10:01:24;5.60;95.70
17148;DHT22;8689;47.364;8.796;2024-02-23T10:04:10;5.60;95.20
17148;DHT22;8689;47.364;8.796;2024-02-23T10:06:38;5.70;96.20
17148;DHT22;8689;47.364;8.796;2024-02-23T10:09:20;5.80;96.00
17148;DHT22;8689;47.364;8.796;2024-02-23T10:12:05;6.00;95.90
17148;DHT22;8689;47.364;8.796;2024-02-23T10:14:32;6.20;95.10
17148;DHT22;8689;47.364;8.796;2024-02-23T10:17:06;6.30;94.80
17148;DHT22;8689;47.364;8.796;2024-02-23T10:19:49;6.50;97.00
17148;DHT22;8689;47.364;8.796;2024-02-23T10:22:16;6.50;94.70
17148;DHT22;8689;47.364;8.796;2024-02-23T10:24:43;6.60;96.00
17148;DHT22;8689;47.364;8.796;2024-02-23T10:27:12;6.70;96.70
17148;DHT22;8689;47.364;8.796;2024-02-23T10:29:42;6.70;94.30
17148;DHT22;8689;47.364;8.796;2024-02-23T10:32:16;6.80;94.80
17148;DHT22;8689;47.364;8.796;2024-02-23T10:34:48;6.80;94.40
17148;DHT22;8689;47.364;8.796;2024-02-23T10:37:31;6.70;93.20
17148;DHT22;8689;47.364;8.796;2024-02-23T10:47:20;6.50;94.90
17148;DHT22;8689;47.364;8.796;2024-02-23T10:49:51;6.50;95.00
17148;DHT22;8689;47.364;8.796;2024-02-23T10:52:19;6.40;94.30
17148;DHT22;8689;47.364;8.796;2024-02-23T10:54:50;6.30;94.50
17148;DHT22;8689;47.364;8.796;2024-02-23T10:57:21;6.30;94.40
17148;DHT22;8689;47.364;8.796;2024-02-23T10:59:48;6.40;95.00
17148;DHT22;8689;47.364;8.796;2024-02-23T11:02:22;6.40;93.80
17148;DHT22;8689;47.364;8.796;2024-02-23T11:04:58;6.40;92.70
17148;DHT22;8689;47.364;8.796;2024-02-23T11:07:44;6.40;93.60
17148;DHT22;8689;47.364;8.796;2024-02-23T11:10:15;6.40;93.50
17148;DHT22;8689;47.364;8.796;2024-02-23T11:12:43;6.40;93.00
17148;DHT22;8689;47.364;8.796;2024-02-23T11:15:26;6.50;92.30
17148;DHT22;8689;47.364;8.796;2024-02-23T11:18:01;6.70;92.80
17148;DHT22;8689;47.364;8.796;2024-02-23T11:20:38;6.90;92.20
17148;DHT22;8689;47.364;8.796;2024-02-23T11:23:15;7.10;91.70
17148;DHT22;8689;47.364;8.796;2024-02-23T11:25:59;7.20;91.10
17148;DHT22;8689;47.364;8.796;2024-02-23T11:28:28;7.40;90.60
17148;DHT22;8689;47.364;8.796;2024-02-23T11:30:58;7.50;90.10
17148;DHT22;8689;47.364;8.796;2024-02-23T11:33:37;7.50;89.30
17148;DHT22;8689;47.364;8.796;2024-02-23T11:36:09;7.50;89.50
17148;DHT22;8689;47.364;8.796;2024-02-23T12:02:14;8.20;88.20
17148;DHT22;8689;47.364;8.796;2024-02-23T12:08:22;8.90;82.20
17148;DHT22;8689;47.364;8.796;2024-02-23T12:11:25;9.00;83.30
17148;DHT22;8689;47.364;8.796;2024-02-23T12:14:28;9.00;83.60
17148;DHT22;8689;47.364;8.796;2024-02-23T12:17:21;9.10;83.40
17148;DHT22;8689;47.364;8.796;2024-02-23T12:20:20;9.40;82.30
17148;DHT22;8689;47.364;8.796;2024-02-23T12:23:13;9.80;79.90
17148;DHT22;8689;47.364;8.796;2024-02-23T12:26:22;10.20;77.20
17148;DHT22;8689;47.364;8.796;2024-02-23T12:29:03;10.50;74.90
17148;DHT22;8689;47.364;8.796;2024-02-23T12:32:44;10.40;72.10
17148;DHT22;8689;47.364;8.796;2024-02-23T12:35:10;10.30;72.60
17148;DHT22;8689;47.364;8.796;2024-02-23T12:37:37;10.20;73.80
17148;DHT22;8689;47.364;8.796;2024-02-23T12:40:06;10.00;74.70
17148;DHT22;8689;47.364;8.796;2024-02-23T12:42:34;10.10;74.30
17148;DHT22;8689;47.364;8.796;2024-02-23T12:45:02;10.20;70.50
17148;DHT22;8689;47.364;8.796;2024-02-23T12:47:32;10.10;74.10
17148;DHT22;8689;47.364;8.796;2024-02-23T12:50:11;10.20;74.60
17148;DHT22;8689;47.364;8.796;2024-02-23T12:52:38;10.10;73.30
17148;DHT22;8689;47.364;8.796;2024-02-23T12:55:05;10.20;72.40
17148;DHT22;8689;47.364;8.796;2024-02-23T12:57:32;10.40;72.60
17148;DHT22;8689;47.364;8.796;2024-02-23T12:59:59;10.50;72.20
17148;DHT22;8689;47.364;8.796;2024-02-23T13:02:27;10.50;71.60
17148;DHT22;8689;47.364;8.796;2024-02-23T13:04:56;10.20;73.40
17148;DHT22;8689;47.364;8.796;2024-02-23T13:07:24;10.10;72.40
17148;DHT22;8689;47.364;8.796;2024-02-23T13:09:52;10.10;73.60
17148;DHT22;8689;47.364;8.796;2024-02-23T13:16:05;9.80;75.80
17148;DHT22;8689;47.364;8.796;2024-02-23T13:18:49;9.60;75.60
17148;DHT22;8689;47.364;8.796;2024-02-23T13:21:33;9.70;75.90
17148;DHT22;8689;47.364;8.796;2024-02-23T13:24:18;9.70;73.60
17148;DHT22;8689;47.364;8.796;2024-02-23T13:26:59;9.70;73.80
17148;DHT22;8689;47.364;8.796;2024-02-23T13:33:26;9.60;75.10
17148;DHT22;8689;47.364;8.796;2024-02-23T13:36:29;9.70;75.10
17148;DHT22;8689;47.364;8.796;2024-02-23T13:39:05;10.40;73.60
17148;DHT22;8689;47.364;8.796;2024-02-23T13:41:38;10.80;71.60
17148;DHT22;8689;47.364;8.796;2024-02-23T13:44:14;11.20;65.90
17148;DHT22;8689;47.364;8.796;2024-02-23T13:46:42;11.40;66.00
17148;DHT22;8689;47.364;8.796;2024-02-23T13:49:09;11.30;67.10
17148;DHT22;8689;47.364;8.796;2024-02-23T13:51:50;11.20;65.00
17148;DHT22;8689;47.364;8.796;2024-02-23T13:54:49;10.90;66.10
17148;DHT22;8689;47.364;8.796;2024-02-23T13:57:18;10.70;68.70
17148;DHT22;8689;47.364;8.796;2024-02-23T13:59:45;10.60;66.50
17148;DHT22;8689;47.364;8.796;2024-02-23T14:02:13;10.50;67.80
17148;DHT22;8689;47.364;8.796;2024-02-23T14:04:59;10.40;67.30
17148;DHT22;8689;47.364;8.796;2024-02-23T14:07:30;10.10;68.80
17148;DHT22;8689;47.364;8.796;2024-02-23T14:09:57;9.80;67.40
17148;DHT22;8689;47.364;8.796;2024-02-23T14:12:26;9.50;70.50
17148;DHT22;8689;47.364;8.796;2024-02-23T14:14:54;9.40;71.40
17148;DHT22;8689;47.364;8.796;2024-02-23T14:17:46;9.30;72.80
17148;DHT22;8689;47.364;8.796;2024-02-23T14:20:19;9.20;70.70
17148;DHT22;8689;47.364;8.796;2024-02-23T14:23:21;9.20;70.90
17148;DHT22;8689;47.364;8.796;2024-02-23T14:26:11;9.10;71.10
17148;DHT22;8689;47.364;8.796;2024-02-23T14:31:42;9.10;73.00
17148;DHT22;8689;47.364;8.796;2024-02-23T14:41:52;8.90;72.90
17148;DHT22;8689;47.364;8.796;2024-02-23T14:45:00;8.70;73.30
17148;DHT22;8689;47.364;8.796;2024-02-23T14:50:53;8.40;74.20
17148;DHT22;8689;47.364;8.796;2024-02-23T14:54:23;8.30;73.40
17148;DHT22;8689;47.364;8.796;2024-02-23T14:57:26;8.30;76.10
17148;DHT22;8689;47.364;8.796;2024-02-23T14:59:55;8.30;73.20
17148;DHT22;8689;47.364;8.796;2024-02-23T15:02:48;8.40;75.80
17148;DHT22;8689;47.364;8.796;2024-02-23T15:05:17;8.40;76.40
17148;DHT22;8689;47.364;8.796;2024-02-23T15:08:17;8.50;75.30
17148;DHT22;8689;47.364;8.796;2024-02-23T15:11:10;8.50;76.90
17148;DHT22;8689;47.364;8.796;2024-02-23T15:14:04;8.40;77.00
17148;DHT22;8689;47.364;8.796;2024-02-23T15:16:55;8.50;78.00
17148;DHT22;8689;47.364;8.796;2024-02-23T15:19:52;8.40;79.40
17148;DHT22;8689;47.364;8.796;2024-02-23T15:22:35;8.50;79.40
17148;DHT22;8689;47.364;8.796;2024-02-23T15:25:32;8.40;77.30
17148;DHT22;8689;47.364;8.796;2024-02-23T15:31:15;8.20;79.40
17148;DHT22;8689;47.364;8.796;2024-02-23T15:33:52;8.20;75.50
17148;DHT22;8689;47.364;8.796;2024-02-23T15:36:30;8.10;75.40
17148;DHT22;8689;47.364;8.796;2024-02-23T15:39:31;8.10;78.80
17148;DHT22;8689;47.364;8.796;2024-02-23T15:45:36;8.00;77.90
17148;DHT22;8689;47.364;8.796;2024-02-23T15:57:53;8.20;78.90
17148;DHT22;8689;47.364;8.796;2024-02-23T16:06:59;8.10;77.90
17148;DHT22;8689;47.364;8.796;2024-02-23T16:16:02;7.60;78.30
17148;DHT22;8689;47.364;8.796;2024-02-23T16:18:37;7.40;78.80
17148;DHT22;8689;47.364;8.796;2024-02-23T16:21:04;7.20;81.00
17148;DHT22;8689;47.364;8.796;2024-02-23T16:23:53;7.10;82.90
17148;DHT22;8689;47.364;8.796;2024-02-23T16:26:26;6.90;85.10
17148;DHT22;8689;47.364;8.796;2024-02-23T16:29:02;6.80;85.20
17148;DHT22;8689;47.364;8.796;2024-02-23T16:31:44;6.70;85.40
17148;DHT22;8689;47.364;8.796;2024-02-23T16:37:47;6.50;86.60
17148;DHT22;8689;47.364;8.796;2024-02-23T16:50:59;6.30;89.30
17148;DHT22;8689;47.364;8.796;2024-02-23T16:54:07;6.10;90.40
17148;DHT22;8689;47.364;8.796;2024-02-23T16:56:44;6.00;90.60
17148;DHT22;8689;47.364;8.796;2024-02-23T16:59:19;5.90;91.70
17148;DHT22;8689;47.364;8.796;2024-02-23T17:01:55;5.80;92.40
17148;DHT22;8689;47.364;8.796;2024-02-23T17:04:24;5.60;93.10
17148;DHT22;8689;47.364;8.796;2024-02-23T17:07:04;5.50;93.80
17148;DHT22;8689;47.364;8.796;2024-02-23T17:13:17;5.40;95.70
17148;DHT22;8689;47.364;8.796;2024-02-23T17:15:50;5.30;96.30
17148;DHT22;8689;47.364;8.796;2024-02-23T17:38:29;5.30;88.40
17148;DHT22;8689;47.364;8.796;2024-02-23T17:41:09;5.20;90.80
17148;DHT22;8689;47.364;8.796;2024-02-23T17:50:40;4.70;93.10
17148;DHT22;8689;47.364;8.796;2024-02-23T18:00:07;4.10;93.60
17148;DHT22;8689;47.364;8.796;2024-02-23T18:30:23;2.70;99.90
17148;DHT22;8689;47.364;8.796;2024-02-23T18:32:50;2.60;99.90
17148;DHT22;8689;47.364;8.796;2024-02-23T18:35:18;2.50;99.90
17148;DHT22;8689;47.364;8.796;2024-02-23T18:37:46;2.50;99.90
17148;DHT22;8689;47.364;8.796;2024-02-23T18:40:13;2.40;99.90
17148;DHT22;8689;47.364;8.796;2024-02-23T18:42:48;2.30;99.90
17148;DHT22;8689;47.364;8.796;2024-02-23T18:45:23;2.20;99.90
17148;DHT22;8689;47.364;8.796;2024-02-23T18:47:51;2.20;99.90
17148;DHT22;8689;47.364;8.796;2024-02-23T18:50:18;2.10;99.90
17148;DHT22;8689;47.364;8.796;2024-02-23T18:52:46;2.10;99.90
17148;DHT22;8689;47.364;8.796;2024-02-23T18:55:28;2.10;99.90
17148;DHT22;8689;47.364;8.796;2024-02-23T18:58:04;2.00;99.90
17148;DHT22;8689;47.364;8.796;2024-02-23T19:11:07;2.10;99.90
17148;DHT22;8689;47.364;8.796;2024-02-23T19:13:42;1.90;99.90
17148;DHT22;8689;47.364;8.796;2024-02-23T19:16:12;1.70;99.90
17148;DHT22;8689;47.364;8.796;2024-02-23T19:18:51;1.70;99.90
17148;DHT22;8689;47.364;8.796;2024-02-23T19:21:24;1.60;99.90
17148;DHT22;8689;47.364;8.796;2024-02-23T19:24:34;1.60;99.90
17148;DHT22;8689;47.364;8.796;2024-02-23T19:27:54;1.70;99.90
17148;DHT22;8689;47.364;8.796;2024-02-23T20:33:31;1.50;99.90
17148;DHT22;8689;47.364;8.796;2024-02-23T23:35:58;0.70;99.90
17148;DHT22;8689;47.364;8.796;2024-02-23T23:41:11;0.80;99.90
17148;DHT22;8689;47.364;8.796;2024-02-23T23:46:34;1.10;99.90
17148;DHT22;8689;47.364;8.796;2024-02-23T23:50:19;1.00;99.90
17148;DHT22;8689;47.364;8.796;2024-02-23T23:53:17;0.90;99.90
17148;DHT22;8689;47.364;8.796;2024-02-23T23:56:43;0.70;99.90
